createdAt,value
2018-04-02T17:38:31.474Z,44.52
2018-04-02T17:39:40.409Z,44.52
2018-04-02T17:40:49.908Z,44.52
2018-04-02T17:41:58.851Z,44.04
2018-04-02T17:43:07.522Z,44.13
2018-04-02T17:44:16.744Z,44.43
2018-04-02T17:45:26.227Z,44.52
2018-04-02T17:46:35.437Z,44.33
2018-04-02T17:47:44.643Z,44.52
2018-04-02T17:48:53.857Z,44.52
2018-04-02T17:50:02.801Z,44.52
2018-04-02T17:51:12.023Z,44.43
2018-04-02T17:52:21.233Z,44.33
2018-04-02T17:53:30.443Z,44.71
2018-04-02T17:54:39.939Z,44.43
2018-04-02T17:55:48.880Z,44.04
2018-04-02T17:56:58.094Z,44.23
2018-04-02T17:58:07.038Z,44.13
2018-04-02T17:59:16.525Z,44.35
2018-04-02T18:00:25.741Z,44.35
2018-04-02T18:01:34.416Z,44.16
2018-04-02T18:02:43.093Z,44.16
2018-04-02T18:03:52.126Z,43.87
2018-04-02T18:05:01.369Z,43.77
2018-04-02T18:06:10.044Z,43.59
2018-04-02T18:07:19.256Z,43.68
2018-04-02T18:08:28.476Z,43.2
2018-04-02T18:09:37.688Z,43.77
2018-04-02T18:10:46.385Z,44.16
2018-04-02T18:11:55.322Z,44.64
2018-04-02T18:13:04.537Z,44.54
2018-04-02T18:14:13.489Z,44.64
2018-04-02T18:15:22.709Z,44.16
2018-04-02T18:16:31.650Z,44.35
2018-04-02T18:17:40.327Z,43.87
2018-04-02T18:18:49.803Z,43.77
2018-04-02T18:19:58.483Z,43.68
2018-04-02T18:21:07.424Z,43.68
2018-04-02T18:22:16.370Z,43.59
2018-04-02T18:23:25.049Z,43.77
2018-04-02T18:24:34.790Z,43.51
2018-04-02T18:25:44.008Z,43.23
2018-04-02T18:26:52.683Z,43.03
2018-04-02T18:28:01.980Z,42.84
2018-04-02T18:29:10.864Z,42.84
2018-04-02T18:30:19.882Z,42.74
2018-04-02T18:31:29.090Z,42.46
2018-04-02T18:32:38.086Z,42.27
2018-04-02T18:33:47.031Z,42.36
2018-04-02T18:34:56.510Z,42.65
2018-04-02T18:36:05.749Z,42.77
2018-04-02T18:37:14.671Z,42.29
2018-04-02T18:38:24.001Z,42.19
2018-04-02T18:39:32.941Z,42
2018-04-02T18:40:41.615Z,41.8
2018-04-02T18:41:50.555Z,42
2018-04-02T18:43:00.044Z,41.9
2018-04-02T18:44:09.522Z,41.9
2018-04-02T18:45:19.006Z,41.9
2018-04-02T18:46:27.952Z,41.52
2018-04-02T18:47:37.520Z,41.61
2018-04-02T18:48:47.077Z,41.9
2018-04-02T18:49:56.020Z,41.9
2018-04-02T18:51:05.272Z,42.11
2018-04-02T18:52:14.763Z,42.3
2018-04-02T18:53:23.796Z,42.02
2018-04-02T18:54:32.743Z,42.02
2018-04-02T18:55:41.606Z,42.02
2018-04-02T18:56:50.702Z,42.11
2018-04-02T18:58:00.482Z,42.02
2018-04-02T18:59:10.312Z,41.93
2018-04-02T19:00:19.425Z,42.02
2018-04-02T19:01:28.483Z,42.21
2018-04-02T19:02:37.213Z,42.02
2018-04-02T19:03:46.521Z,41.93
2018-04-02T19:04:55.876Z,41.73
2018-04-02T19:06:05.220Z,41.83
2018-04-02T19:07:14.258Z,41.66
2018-04-02T19:08:23.548Z,41.56
2018-04-02T19:09:32.874Z,41.66
2018-04-02T19:10:41.940Z,41.75
2018-04-02T19:11:51.203Z,41.37
2018-04-02T19:13:00.610Z,41.46
2018-04-02T19:14:09.889Z,41.37
2018-04-02T19:15:19.119Z,41.46
2018-04-02T19:16:28.331Z,41.37
2018-04-02T19:17:37.068Z,41.17
2018-04-02T19:18:46.124Z,40.99
2018-04-02T19:19:55.090Z,41.17
2018-04-02T19:21:04.797Z,41.08
2018-04-02T19:22:13.596Z,41.27
2018-04-02T19:23:22.920Z,40.89
2018-04-02T19:24:32.193Z,41.08
2018-04-02T19:25:41.407Z,41.08
2018-04-02T19:26:50.982Z,40.99
2018-04-02T19:28:00.274Z,40.99
2018-04-02T19:29:09.105Z,41.17
2018-04-02T19:30:18.136Z,40.99
2018-04-02T19:31:27.619Z,40.89
2018-04-02T19:32:36.296Z,40.99
2018-04-02T19:33:45.510Z,40.5
2018-04-02T19:34:54.726Z,40.31
2018-04-02T19:36:04.473Z,40.31
2018-04-02T19:37:13.690Z,40.31
2018-04-02T19:38:22.645Z,40.31
2018-04-02T19:39:31.595Z,40.22
2018-04-02T19:40:41.606Z,40.31
2018-04-02T19:41:51.361Z,40.12
2018-04-02T19:43:00.584Z,40.41
2018-04-02T19:44:09.527Z,40.43
2018-04-02T19:45:19.285Z,40.41
2018-04-02T19:46:28.502Z,40.52
2018-04-02T19:47:37.715Z,40.31
2018-04-02T19:48:46.665Z,40.43
2018-04-02T19:49:55.873Z,40.43
2018-04-02T19:51:05.350Z,40.43
2018-04-02T19:52:14.303Z,40.33
2018-04-02T19:53:23.251Z,40.23
2018-04-02T19:54:31.926Z,40.41
2018-04-02T19:55:41.140Z,40.43
2018-04-02T19:56:50.352Z,40.43
2018-04-02T19:57:59.573Z,40.23
2018-04-02T19:59:08.785Z,40.33
2018-04-02T20:00:17.738Z,40.33
2018-04-02T20:01:26.412Z,40.33
2018-04-02T20:02:36.157Z,40.33
2018-04-02T20:03:45.375Z,40.43
2018-04-02T20:04:54.581Z,40.05
2018-04-02T20:06:03.528Z,40.05
2018-04-02T20:07:13.007Z,40.14
2018-04-02T20:08:22.219Z,39.85
2018-04-02T20:09:31.703Z,40.14
2018-04-02T20:10:40.915Z,39.95
2018-04-02T20:11:50.134Z,39.95
2018-04-02T20:12:59.643Z,40.05
2018-04-02T20:14:08.325Z,39.85
2018-04-02T20:15:17.539Z,40.23
2018-04-02T20:16:27.018Z,40.33
2018-04-02T20:17:36.233Z,40.52
2018-04-02T20:18:45.711Z,40.43
2018-04-02T20:19:54.660Z,40.43
2018-04-02T20:21:03.340Z,40.43
2018-04-02T20:22:12.285Z,40.52
2018-04-02T20:23:21.235Z,40.52
2018-04-02T20:24:30.184Z,40.52
2018-04-02T20:25:39.398Z,40.52
2018-04-02T20:26:48.883Z,40.52
2018-04-02T20:27:58.100Z,40.52
2018-04-02T20:29:07.576Z,41.1
2018-04-02T20:30:16.255Z,41.2
2018-04-02T20:31:25.202Z,40.52
2018-04-02T20:32:34.416Z,40.43
2018-04-02T20:33:43.098Z,40.43
2018-04-02T20:34:52.310Z,40.33
2018-04-02T20:36:02.118Z,41.2
2018-04-02T20:37:10.800Z,41.2
2018-04-02T20:38:19.488Z,41.1
2018-04-02T20:39:29.498Z,41.2
2018-04-02T20:40:38.442Z,41.2
2018-04-02T20:41:47.661Z,41.1
2018-04-02T20:42:56.878Z,41.1
2018-04-02T20:44:05.559Z,41.2
2018-04-02T20:45:14.505Z,41
2018-04-02T20:46:23.454Z,41.1
2018-04-02T20:47:32.679Z,41.2
2018-04-02T20:48:42.424Z,41.2
2018-04-02T20:49:52.252Z,41.2
2018-04-02T20:51:02.006Z,41.1
2018-04-02T20:52:10.685Z,41.2
2018-04-02T20:53:20.187Z,41.1
2018-04-02T20:54:29.397Z,41
2018-04-02T20:55:38.391Z,40.91
2018-04-02T20:56:47.342Z,41.1
2018-04-02T20:57:57.359Z,41.1
2018-04-02T20:59:06.836Z,41.1
2018-04-02T21:00:15.851Z,41.1
2018-04-02T21:01:25.791Z,41.2
2018-04-02T21:02:34.744Z,41.29
2018-04-02T21:03:44.228Z,41.29
2018-04-02T21:04:53.171Z,41.1
2018-04-02T21:06:02.397Z,40.81
2018-04-02T21:07:11.612Z,40.62
2018-04-02T21:08:21.113Z,40.62
2018-04-02T21:09:30.068Z,40.72
2018-04-02T21:10:38.744Z,40.33
2018-04-02T21:11:47.430Z,40.52
2018-04-02T21:12:56.375Z,40.23
2018-04-02T21:14:05.345Z,40.62
2018-04-02T21:15:14.555Z,40.43
2018-04-02T21:16:23.770Z,40.43
2018-04-02T21:17:33.517Z,40.43
2018-04-02T21:18:42.468Z,40.52
2018-04-02T21:19:51.949Z,40.43
2018-04-02T21:21:01.179Z,40.33
2018-04-02T21:22:10.664Z,40.14
2018-04-02T21:23:19.343Z,40.23
2018-04-02T21:24:28.024Z,40.43
2018-04-02T21:25:37.239Z,40.43
2018-04-02T21:26:45.922Z,40.43
2018-04-02T21:27:55.673Z,40.52
2018-04-02T21:29:04.883Z,40.14
2018-04-02T21:30:13.831Z,40.23
2018-04-02T21:31:23.574Z,40.43
2018-04-02T21:32:32.523Z,40.43
2018-04-02T21:33:41.205Z,40.23
2018-04-02T21:34:50.149Z,40.23
2018-04-02T21:35:58.832Z,40.33
2018-04-02T21:37:07.782Z,40.33
2018-04-02T21:38:17.274Z,40.33
2018-04-02T21:39:26.758Z,40.33
2018-04-02T21:40:35.975Z,40.33
2018-04-02T21:41:45.451Z,40.23
2018-04-02T21:42:54.129Z,40.43
2018-04-02T21:44:03.077Z,40.43
2018-04-02T21:45:12.023Z,40.43
2018-04-02T21:46:20.972Z,40.52
2018-04-02T21:47:30.463Z,40.52
2018-04-02T21:48:39.217Z,40.33
2018-04-02T21:49:47.893Z,40.33
2018-04-02T21:50:56.841Z,40.52
2018-04-02T21:52:05.515Z,40.23
2018-04-02T21:53:14.736Z,40.23
2018-04-02T21:54:23.681Z,40.33
2018-04-02T21:55:32.365Z,40.33
2018-04-02T21:56:41.315Z,40.33
2018-04-02T21:57:50.526Z,40.33
2018-04-02T21:58:59.473Z,40.33
2018-04-02T22:00:08.424Z,40.23
2018-04-02T22:01:17.103Z,40.23
2018-04-02T22:02:26.343Z,40.33
2018-04-02T22:03:35.344Z,40.33
2018-04-02T22:04:44.292Z,40.23
2018-04-02T22:05:53.236Z,40.05
2018-04-02T22:07:02.459Z,40.33
2018-04-02T22:08:11.400Z,40.23
2018-04-02T22:09:20.880Z,40.33
2018-04-02T22:10:29.826Z,40.23
2018-04-02T22:11:38.770Z,40.23
2018-04-02T22:12:47.985Z,40.43
2018-04-02T22:13:57.467Z,40.43
2018-04-02T22:15:07.676Z,40.33
